createdAt,value
2019-03-30T00:01:19.266Z,42.40
2019-03-30T00:06:16.564Z,40.76
2019-03-30T00:10:43.582Z,38.60
2019-03-30T00:14:49.311Z,38.68
2019-03-30T00:18:55.034Z,39.89
2019-03-30T00:23:00.811Z,40.86
2019-03-30T00:27:06.595Z,38.94
2019-03-30T00:31:12.296Z,38.49
2019-03-30T00:35:18.064Z,37.93
2019-03-30T00:39:23.758Z,39.57
2019-03-30T00:43:29.438Z,39.96
2019-03-30T00:47:35.227Z,42.86
2019-03-30T00:51:40.914Z,41.86
2019-03-30T00:55:46.628Z,41.66
2019-03-30T00:59:52.317Z,40.38
2019-03-30T01:03:58.011Z,41.46
2019-03-30T01:08:03.742Z,41.52
2019-03-30T01:12:09.436Z,41.39
2019-03-30T01:16:15.204Z,42.55
2019-03-30T01:20:20.892Z,42.62
2019-03-30T01:24:28.322Z,42.11
2019-03-30T01:28:34.029Z,42.91
2019-03-30T01:32:39.730Z,41.11
2019-03-30T01:36:45.628Z,43.13
2019-03-30T01:40:51.309Z,42.47
2019-03-30T01:44:57.975Z,40.73
2019-03-30T01:49:03.712Z,41.82
2019-03-30T01:53:09.404Z,42.58
2019-03-30T01:57:15.111Z,43.90
2019-03-30T02:01:20.918Z,43.57
2019-03-30T02:05:26.649Z,42.88
2019-03-30T02:09:32.501Z,43.76
2019-03-30T02:13:38.194Z,43.49
2019-03-30T02:17:43.886Z,41.22
2019-03-30T02:21:49.588Z,43.43
2019-03-30T02:25:55.299Z,43.31
2019-03-30T02:30:01.014Z,43.05
2019-03-30T02:34:07.859Z,42.97
2019-03-30T02:38:13.539Z,45.87
2019-03-30T02:42:19.519Z,43.62
2019-03-30T02:46:25.224Z,45.38
2019-03-30T02:50:47.686Z,43.11
2019-03-30T02:54:38.346Z,45.08
2019-03-30T02:58:44.039Z,43.42
2019-03-30T03:02:49.758Z,45.97
2019-03-30T03:06:55.505Z,43.99
2019-03-30T03:11:01.288Z,43.61
2019-03-30T03:15:11.046Z,45.50
2019-03-30T03:19:16.733Z,44.31
2019-03-30T03:23:22.424Z,45.72
2019-03-30T03:27:28.129Z,43.43
2019-03-30T03:31:33.827Z,46.09
2019-03-30T03:35:39.561Z,44.29
2019-03-30T03:39:45.237Z,46.05
2019-03-30T03:43:51.041Z,46.93
2019-03-30T03:47:56.809Z,47.12
2019-03-30T03:52:03.338Z,44.44
2019-03-30T03:56:11.731Z,46.82
2019-03-30T04:00:17.511Z,46.75
2019-03-30T04:04:27.460Z,46.76
2019-03-30T04:08:33.704Z,45.88
2019-03-30T04:12:41.208Z,45.00
2019-03-30T04:16:47.075Z,47.45
2019-03-30T04:20:53.804Z,46.55
2019-03-30T04:24:59.506Z,45.16
2019-03-30T04:29:05.215Z,44.74
2019-03-30T04:33:11.071Z,47.95
2019-03-30T04:37:16.797Z,45.60
2019-03-30T04:41:22.640Z,47.15
2019-03-30T04:45:28.418Z,46.21
2019-03-30T04:49:34.129Z,45.00
2019-03-30T04:53:39.831Z,45.58
2019-03-30T04:57:49.738Z,47.36
2019-03-30T05:01:52.927Z,46.48
2019-03-30T05:05:58.681Z,47.45
2019-03-30T05:10:08.633Z,47.92
2019-03-30T05:14:14.322Z,47.03
2019-03-30T05:18:20.022Z,48.87
2019-03-30T05:22:25.702Z,49.25
2019-03-30T05:26:31.474Z,45.15
2019-03-30T05:30:37.375Z,46.89
2019-03-30T05:34:43.152Z,46.95
2019-03-30T05:38:48.853Z,46.98
2019-03-30T05:42:54.532Z,46.91
2019-03-30T05:47:00.233Z,46.31
2019-03-30T05:51:06.054Z,47.67
2019-03-30T05:55:11.791Z,47.09
2019-03-30T05:59:17.489Z,44.12
2019-03-30T06:03:23.187Z,45.14
2019-03-30T06:07:28.921Z,46.55
2019-03-30T06:11:34.703Z,45.38
2019-03-30T06:15:40.411Z,43.67
2019-03-30T06:19:46.162Z,43.17
2019-03-30T06:23:51.897Z,44.21
2019-03-30T06:27:57.664Z,43.35
2019-03-30T06:32:03.360Z,45.16
2019-03-30T06:36:09.102Z,45.17
2019-03-30T06:40:16.405Z,41.57
2019-03-30T06:44:22.103Z,42.12
2019-03-30T06:48:27.830Z,41.92
2019-03-30T06:52:33.534Z,41.41
2019-03-30T06:56:39.273Z,39.92
2019-03-30T07:00:46.390Z,38.42
2019-03-30T07:04:52.611Z,37.24
2019-03-30T07:09:01.828Z,36.22
2019-03-30T07:13:07.838Z,36.43
2019-03-30T07:17:14.282Z,36.06
2019-03-30T07:21:19.964Z,38.37
2019-03-30T07:25:26.311Z,37.36
2019-03-30T07:29:32.015Z,34.67
2019-03-30T07:33:37.815Z,34.24
2019-03-30T07:37:43.524Z,34.04
2019-03-30T07:41:49.225Z,33.79
2019-03-30T07:45:54.925Z,33.37
2019-03-30T07:50:00.633Z,32.96
2019-03-30T07:54:06.405Z,32.21
2019-03-30T07:58:12.114Z,31.47
2019-03-30T08:02:17.816Z,31.52
2019-03-30T08:06:23.517Z,31.81
2019-03-30T08:10:29.352Z,29.96
2019-03-30T08:14:35.088Z,30.57
2019-03-30T08:18:40.740Z,30.48
2019-03-30T08:22:47.422Z,30.34
2019-03-30T08:26:53.127Z,28.78
2019-03-30T08:30:58.869Z,28.09
2019-03-30T08:35:06.327Z,27.05
2019-03-30T08:39:12.138Z,27.61
2019-03-30T08:43:17.887Z,27.29
2019-03-30T08:47:23.612Z,25.81
2019-03-30T08:51:29.310Z,25.76
2019-03-30T08:55:35.031Z,26.12
2019-03-30T08:59:40.717Z,24.64
2019-03-30T09:03:47.517Z,24.41
2019-03-30T09:07:53.214Z,23.89
2019-03-30T09:11:58.923Z,23.22
2019-03-30T09:16:04.645Z,24.46
2019-03-30T09:20:10.643Z,23.14
2019-03-30T09:24:16.342Z,22.99
2019-03-30T09:28:22.160Z,22.17
2019-03-30T09:32:27.932Z,21.79
2019-03-30T09:36:33.759Z,21.53
2019-03-30T09:40:39.525Z,21.34
2019-03-30T09:44:45.222Z,22.64
2019-03-30T09:48:50.919Z,21.23
2019-03-30T09:52:56.658Z,20.28
2019-03-30T09:57:02.359Z,19.97
2019-03-30T10:01:08.129Z,20.46
2019-03-30T10:05:14.142Z,19.71
2019-03-30T10:09:19.855Z,19.39
2019-03-30T10:13:25.635Z,18.76
2019-03-30T10:17:31.387Z,18.76
2019-03-30T10:21:37.088Z,18.55
2019-03-30T10:25:42.795Z,17.94
2019-03-30T10:29:48.529Z,17.48
2019-03-30T10:33:54.240Z,16.38
2019-03-30T10:37:59.926Z,16.44
2019-03-30T10:42:05.763Z,17.68
2019-03-30T10:46:11.516Z,16.09
2019-03-30T10:50:17.385Z,16.84
2019-03-30T10:54:23.121Z,15.58
2019-03-30T10:58:28.839Z,16.43
2019-03-30T11:02:34.600Z,15.20
2019-03-30T11:06:40.338Z,14.60
2019-03-30T11:10:46.087Z,14.48
2019-03-30T11:14:51.861Z,14.24
2019-03-30T11:18:57.635Z,15.06
2019-03-30T11:23:03.372Z,14.40
2019-03-30T11:27:09.068Z,13.58
2019-03-30T11:31:14.790Z,13.75
2019-03-30T11:35:20.508Z,14.37
2019-03-30T11:39:26.252Z,12.96
2019-03-30T11:43:31.971Z,12.72
2019-03-30T11:47:37.703Z,13.96
2019-03-30T11:51:43.409Z,12.84
2019-03-30T11:55:49.148Z,13.13
2019-03-30T11:59:54.833Z,13.65
2019-03-30T12:04:00.538Z,13.88
2019-03-30T12:08:06.328Z,13.88
2019-03-30T12:12:12.025Z,14.80
2019-03-30T12:16:17.818Z,15.26
2019-03-30T12:20:23.536Z,15.33
2019-03-30T12:24:29.262Z,16.19
2019-03-30T12:28:34.989Z,16.38
2019-03-30T12:33:19.053Z,17.33
2019-03-30T12:37:24.800Z,18.18
2019-03-30T12:42:18.631Z,17.33
2019-03-30T12:46:24.316Z,17.74
2019-03-30T12:55:20.053Z,20.14
2019-03-30T12:59:25.769Z,19.56
2019-03-30T13:03:31.535Z,17.63
2019-03-30T13:07:37.338Z,16.21
2019-03-30T13:11:43.020Z,16.33
2019-03-30T13:15:48.744Z,17.33
2019-03-30T13:19:54.433Z,17.75
2019-03-30T13:24:15.122Z,17.30
2019-03-30T13:28:20.885Z,17.38
2019-03-30T13:32:26.633Z,15.37
2019-03-30T13:36:39.574Z,17.86
2019-03-30T13:40:45.269Z,15.91
2019-03-30T13:44:50.950Z,15.60
2019-03-30T13:48:56.658Z,15.93
2019-03-30T13:53:02.406Z,15.12
2019-03-30T13:57:08.115Z,15.63
2019-03-30T14:01:13.812Z,15.54
2019-03-30T14:05:19.611Z,14.60
2019-03-30T14:09:25.274Z,17.66
2019-03-30T14:13:31.094Z,16.47
2019-03-30T14:17:36.819Z,15.87
2019-03-30T14:21:42.593Z,15.01
2019-03-30T14:25:48.295Z,15.87
2019-03-30T14:29:54.546Z,15.95
2019-03-30T14:34:00.321Z,15.65
2019-03-30T14:38:07.863Z,16.19
2019-03-30T14:42:16.585Z,17.33
2019-03-30T14:46:22.423Z,16.29
2019-03-30T14:50:28.193Z,16.40
2019-03-30T14:54:33.983Z,16.33
2019-03-30T14:58:39.722Z,17.12
2019-03-30T15:02:45.591Z,17.05
2019-03-30T15:06:51.278Z,19.52
2019-03-30T15:10:56.975Z,20.61
2019-03-30T15:15:02.725Z,17.55
2019-03-30T15:19:08.490Z,19.30
2019-03-30T15:23:20.200Z,19.29
2019-03-30T15:27:25.891Z,19.53
2019-03-30T15:31:31.578Z,18.67
2019-03-30T15:35:37.598Z,20.13
2019-03-30T15:39:43.760Z,21.46
2019-03-30T15:43:51.966Z,21.18
2019-03-30T15:47:57.038Z,20.88
2019-03-30T15:52:13.709Z,23.50
2019-03-30T15:56:10.474Z,21.90
2019-03-30T16:00:18.216Z,21.49
2019-03-30T16:04:25.600Z,21.57
2019-03-30T16:08:31.345Z,22.75
2019-03-30T16:12:37.048Z,22.57
2019-03-30T16:16:42.737Z,21.95
2019-03-30T16:20:48.451Z,21.75
2019-03-30T16:24:54.231Z,22.59
2019-03-30T16:29:00.001Z,22.96
2019-03-30T16:33:05.780Z,22.50
2019-03-30T16:55:16.965Z,24.08
2019-03-30T17:00:17.232Z,24.04
2019-03-30T17:04:23.013Z,28.09
2019-03-30T17:08:28.729Z,28.21
2019-03-30T17:13:16.275Z,25.37
2019-03-30T17:17:21.991Z,24.94
2019-03-30T17:21:27.682Z,24.70
2019-03-30T17:25:33.480Z,25.32
2019-03-30T17:29:39.194Z,24.77
2019-03-30T17:33:44.895Z,27.15
2019-03-30T17:37:50.618Z,25.03
2019-03-30T17:42:17.349Z,25.25
2019-03-30T17:46:23.034Z,25.57
2019-03-30T17:50:28.794Z,26.10
2019-03-30T17:58:38.998Z,26.66
2019-03-30T18:03:17.750Z,26.79
2019-03-30T18:07:23.429Z,26.73
2019-03-30T18:11:29.248Z,26.80
2019-03-30T18:15:34.959Z,27.63
2019-03-30T18:19:41.636Z,27.59
2019-03-30T18:23:47.677Z,27.22
2019-03-30T18:27:53.434Z,27.36
2019-03-30T18:37:04.592Z,27.72
2019-03-30T18:41:10.309Z,28.50
2019-03-30T18:45:25.945Z,28.21
2019-03-30T18:49:31.641Z,28.13
2019-03-30T18:53:38.837Z,28.69
2019-03-30T18:57:44.583Z,28.78
2019-03-30T19:01:53.389Z,29.25
2019-03-30T19:05:59.103Z,29.07
2019-03-30T19:10:06.128Z,29.14
2019-03-30T19:14:11.990Z,29.08
2019-03-30T19:18:17.748Z,29.53
2019-03-30T19:22:23.524Z,29.71
2019-03-30T19:26:29.227Z,32.30
2019-03-30T19:30:34.957Z,29.58
2019-03-30T19:34:40.621Z,31.32
2019-03-30T19:38:46.347Z,29.84
2019-03-30T19:42:52.065Z,30.23
2019-03-30T19:46:57.763Z,31.33
2019-03-30T19:51:03.521Z,32.83
2019-03-30T19:55:09.406Z,33.00
2019-03-30T19:59:15.120Z,33.71
2019-03-30T20:03:20.835Z,30.44
2019-03-30T20:07:26.568Z,30.66
2019-03-30T20:11:32.297Z,32.68
2019-03-30T20:15:38.007Z,30.79
2019-03-30T20:19:43.723Z,31.37
2019-03-30T20:23:49.444Z,33.60
2019-03-30T20:27:55.144Z,34.02
2019-03-30T20:32:00.831Z,32.52
2019-03-30T20:36:06.543Z,32.08
2019-03-30T20:40:12.719Z,33.59
2019-03-30T20:44:18.502Z,31.73
2019-03-30T20:48:24.334Z,32.83
2019-03-30T20:52:30.029Z,33.80
2019-03-30T20:56:35.730Z,35.01
2019-03-30T21:00:41.474Z,34.74
2019-03-30T21:04:47.236Z,33.89
2019-03-30T21:08:52.945Z,36.75
2019-03-30T21:13:07.456Z,34.14
2019-03-30T21:17:19.271Z,33.56
2019-03-30T21:21:25.965Z,32.83
2019-03-30T21:25:31.670Z,33.84
2019-03-30T21:29:53.949Z,34.59
2019-03-30T21:33:48.092Z,34.54
2019-03-30T21:37:53.806Z,33.89
2019-03-30T21:41:59.590Z,33.21
2019-03-30T21:46:05.391Z,32.97
2019-03-30T21:50:11.302Z,33.40
2019-03-30T21:54:17.072Z,36.75
2019-03-30T21:58:22.794Z,34.18
2019-03-30T22:02:28.496Z,34.28
2019-03-30T22:06:34.619Z,35.93
2019-03-30T22:10:40.300Z,36.25
2019-03-30T22:14:46.043Z,35.38
2019-03-30T22:18:51.745Z,34.75
2019-03-30T22:22:57.467Z,33.93
2019-03-30T22:27:03.168Z,34.97
2019-03-30T22:31:08.867Z,35.15
2019-03-30T22:35:14.711Z,38.72
2019-03-30T22:39:20.480Z,36.89
2019-03-30T22:43:26.214Z,36.18
2019-03-30T22:47:31.917Z,34.14
2019-03-30T22:51:38.867Z,35.34
2019-03-30T22:55:44.679Z,35.66
2019-03-30T22:59:50.383Z,35.00
2019-03-30T23:03:56.211Z,34.33
2019-03-30T23:08:01.955Z,35.52
2019-03-30T23:12:07.659Z,36.75
2019-03-30T23:16:13.421Z,36.66
2019-03-30T23:20:20.101Z,35.34
2019-03-30T23:24:25.791Z,35.02
2019-03-30T23:28:31.526Z,35.49
2019-03-30T23:32:37.292Z,36.73
2019-03-30T23:36:44.052Z,38.39
2019-03-30T23:40:49.762Z,37.15
2019-03-30T23:44:55.536Z,36.87
2019-03-30T23:49:01.255Z,38.70
2019-03-30T23:53:07.658Z,36.98
2019-03-30T23:57:14.420Z,35.57
